Search for airport 
image banner adimage banner adimage banner ad
image banner ad

CL54 - Westside Towers

Located in Los Angeles, United States

ICAO - CL54, IATA -

Data provided by Airmate  

General information

Coordinates: N34°1'59" W118°27'5"
Elevation is 325 feet MSL.
Magnetic variation is 14° East
View others Airports in California

Operational data

Special qualification required
Current time UTC:
Current local time:
Weather at : KSMO - Santa Monica Muni ( 2 km )
METAR: KSMO 210251Z 25003KT 10SM CLR 19/17 A2993 RMK AO2 SLP135 T01940167 53016
TAF: KSMO 202334Z 2100/2124 24008KT P6SM SKC FM210300 VRB03KT P6SM SKC FM211000 10005KT 5SM HZ SCT004 FM211900 23008KT P6SM SKC
View NOTAMs / SUP AIP / TFR affecting this airport [VIEW]
Communications frequencies: [VIEW]

Runways:

Airport contact information

Address: Los Angeles United States

Satellite view of CL54